Cement Creek, Colorado
Current Conditions -  °F | °C
As of 7:30 PM on Saturday 20 Dec 2014 (Local Time) from KASE Reporting Station
Light Snow Light Snow  
Wind Chill: 19°   Ceiling: 3100
Heat Index: 25°   Visibility: 2mi
Dew Point: 23°   Wind: 5mph
Humidity: 92%   Direction: 330°NNW
Pressure: 30.05"   Gusts: NA
Location:  38.8937°N, 106.919°W
Report Text: KASE 210230Z 33004KT 2SM -SN BR OVC031 M04/M05 A3005 RMK AO2 P0000 T10391050
Loading
Personal Weather Stations






























Interactive Weather Map New forecast layout! Learn more

10-Day Weather Forecast

Advertisements
Track Severe Weather on mobile